createdAt,value
2018-04-27T00:00:23.932Z,98.46
2018-04-27T00:01:23.909Z,97.99
2018-04-27T00:02:23.888Z,97.32
2018-04-27T00:03:23.865Z,97.61
2018-04-27T00:04:23.845Z,97.51
2018-04-27T00:05:23.822Z,98.46
2018-04-27T00:06:23.800Z,97.51
2018-04-27T00:07:23.777Z,97.03
2018-04-27T00:08:23.757Z,97.70
2018-04-27T00:09:23.735Z,97.61
2018-04-27T00:10:23.712Z,97.51
2018-04-27T00:11:23.689Z,96.94
2018-04-27T00:12:23.667Z,96.84
2018-04-27T00:13:23.645Z,97.70
2018-04-27T00:14:23.626Z,96.46
2018-04-27T00:15:23.614Z,96.84
2018-04-27T00:16:23.580Z,97.61
2018-04-27T00:17:23.559Z,97.89
2018-04-27T00:18:23.536Z,97.70
2018-04-27T00:19:23.514Z,97.80
2018-04-27T00:20:23.491Z,98.27
2018-04-27T00:21:23.468Z,98.65
2018-04-27T00:22:23.446Z,98.22
2018-04-27T00:23:23.428Z,98.79
2018-04-27T00:24:23.403Z,98.89
2018-04-27T00:25:23.381Z,99.60
2018-04-27T00:26:23.359Z,98.89
2018-04-27T00:27:23.336Z,99.55
2018-04-27T00:28:23.317Z,99.46
2018-04-27T00:29:23.292Z,99.37
2018-04-27T00:30:23.270Z,98.70
2018-04-27T00:31:23.247Z,98.41
2018-04-27T00:32:23.225Z,98.22
2018-04-27T00:33:23.204Z,97.56
2018-04-27T00:34:23.212Z,97.46
2018-04-27T00:35:23.159Z,98.51
2018-04-27T00:36:23.137Z,98.51
2018-04-27T00:37:23.115Z,98.41
2018-04-27T00:38:23.092Z,98.22
2018-04-27T00:39:23.070Z,98.51
2018-04-27T00:40:23.048Z,98.99
2018-04-27T00:41:23.027Z,98.41
2018-04-27T00:42:23.004Z,98.32
2018-04-27T00:43:22.982Z,99.18
2018-04-27T00:44:22.961Z,99.46
2018-04-27T00:45:22.939Z,99.37
2018-04-27T00:46:22.915Z,99.75
2018-04-27T00:47:22.894Z,99.55
2018-04-27T00:48:22.872Z,99.99
2018-04-27T00:49:22.852Z,99.99
2018-04-27T00:50:22.827Z,99.94
2018-04-27T00:51:22.804Z,99.99
2018-04-27T00:52:22.781Z,99.99
2018-04-27T00:53:22.761Z,99.99
2018-04-27T00:54:22.737Z,99.99
2018-04-27T00:55:22.716Z,99.99
2018-04-27T00:56:22.692Z,99.99
2018-04-27T00:57:22.670Z,99.99
2018-04-27T00:58:22.648Z,99.99
2018-04-27T00:59:22.624Z,99.99
2018-04-27T01:00:22.603Z,99.99
2018-04-27T01:01:22.580Z,99.99
2018-04-27T01:02:22.559Z,99.99
2018-04-27T01:03:22.537Z,99.99
2018-04-27T01:04:22.513Z,99.99
2018-04-27T01:05:22.493Z,99.99
2018-04-27T01:06:22.468Z,99.99
2018-04-27T01:07:22.446Z,99.99
2018-04-27T01:08:22.424Z,99.99
2018-04-27T01:09:22.402Z,99.99
2018-04-27T01:10:22.379Z,99.99
2018-04-27T01:11:22.362Z,99.99
2018-04-27T01:12:22.335Z,99.99
2018-04-27T01:13:22.312Z,99.99
2018-04-27T01:14:22.289Z,99.99
2018-04-27T01:15:22.266Z,99.99
2018-04-27T01:16:22.243Z,99.99
2018-04-27T01:17:22.221Z,99.99
2018-04-27T01:18:22.198Z,99.99
2018-04-27T01:19:22.175Z,99.99
2018-04-27T01:20:22.153Z,99.99
2018-04-27T01:21:22.131Z,99.99
2018-04-27T01:22:22.108Z,99.99
2018-04-27T01:23:22.086Z,99.99
2018-04-27T01:24:22.063Z,99.99
2018-04-27T01:25:22.040Z,99.99
2018-04-27T01:26:22.016Z,99.74
2018-04-27T01:27:21.993Z,99.84
2018-04-27T01:28:21.971Z,99.46
2018-04-27T01:29:21.948Z,99.27
2018-04-27T01:30:21.930Z,99.17
2018-04-27T01:31:21.903Z,99.74
2018-04-27T01:32:21.880Z,99.36
2018-04-27T01:33:21.859Z,99.65
2018-04-27T01:34:21.833Z,99.46
2018-04-27T01:35:21.810Z,99.65
2018-04-27T01:36:21.788Z,99.84
2018-04-27T01:37:21.765Z,99.99
2018-04-27T01:38:21.741Z,99.74
2018-04-27T01:39:21.718Z,98.88
2018-04-27T01:40:21.695Z,99.93
2018-04-27T01:41:21.674Z,99.74
2018-04-27T01:42:21.650Z,99.36
2018-04-27T01:43:21.627Z,98.98
2018-04-27T01:44:22.393Z,99.17
2018-04-27T01:45:21.585Z,98.69
2018-04-27T01:46:21.559Z,99.36
2018-04-27T01:47:21.536Z,98.69
2018-04-27T01:48:21.514Z,99.46
2018-04-27T01:49:21.491Z,99.55
2018-04-27T01:50:21.469Z,99.08
2018-04-27T01:51:21.449Z,98.69
2018-04-27T01:52:21.423Z,98.41
2018-04-27T01:53:21.399Z,99.27
2018-04-27T01:54:21.377Z,99.08
2018-04-27T01:55:21.353Z,98.98
2018-04-27T01:56:21.331Z,98.88
2018-04-27T01:57:21.309Z,98.32
2018-04-27T01:58:21.285Z,98.79
2018-04-27T01:59:21.261Z,97.79
2018-04-27T02:00:21.239Z,98.13
2018-04-27T02:01:21.215Z,98.79
2018-04-27T02:02:21.191Z,97.17
2018-04-27T02:03:21.171Z,97.13
2018-04-27T02:04:21.147Z,97.88
2018-04-27T02:05:21.123Z,98.08
2018-04-27T02:06:21.101Z,97.60
2018-04-27T02:07:21.079Z,97.03
2018-04-27T02:08:21.055Z,97.41
2018-04-27T02:09:21.036Z,98.27
2018-04-27T02:10:21.008Z,98.17
2018-04-27T02:11:20.986Z,97.79
2018-04-27T02:12:20.962Z,97.98
2018-04-27T02:13:20.939Z,98.08
2018-04-27T02:14:20.915Z,97.98
2018-04-27T02:15:20.892Z,97.22
2018-04-27T02:16:20.870Z,96.65
2018-04-27T02:17:20.847Z,97.22
2018-04-27T02:18:20.824Z,97.50
2018-04-27T02:19:20.801Z,97.03
2018-04-27T02:20:20.777Z,95.70
2018-04-27T02:21:20.754Z,96.65
2018-04-27T02:22:20.730Z,96.17
2018-04-27T02:23:20.707Z,94.84
2018-04-27T02:24:20.686Z,95.41
2018-04-27T02:25:20.663Z,94.56
2018-04-27T02:26:20.640Z,94.46
2018-04-27T02:27:20.617Z,93.70
2018-04-27T02:28:20.593Z,95.41
2018-04-27T02:29:20.568Z,94.08
2018-04-27T02:30:20.545Z,91.80
2018-04-27T02:31:20.523Z,94.74
2018-04-27T02:32:20.500Z,95.12
2018-04-27T02:33:20.477Z,93.89
2018-04-27T02:34:20.452Z,94.08
2018-04-27T02:35:20.430Z,93.98
2018-04-27T02:36:21.156Z,95.17
2018-04-27T02:37:20.384Z,95.32
2018-04-27T02:38:20.359Z,93.79
2018-04-27T02:39:20.335Z,94.42
2018-04-27T02:40:20.313Z,94.42
2018-04-27T02:41:20.297Z,94.51
2018-04-27T02:42:20.264Z,93.84
2018-04-27T02:43:20.242Z,94.51
2018-04-27T02:44:20.221Z,94.51
2018-04-27T02:45:20.196Z,93.65
2018-04-27T02:46:20.177Z,93.65
2018-04-27T02:47:20.148Z,93.55
2018-04-27T02:48:20.125Z,93.94
2018-04-27T02:49:20.102Z,94.32
2018-04-27T02:50:20.082Z,94.51
2018-04-27T02:51:20.055Z,93.84
2018-04-27T02:52:20.038Z,94.22
2018-04-27T02:53:20.011Z,95.75
2018-04-27T02:54:19.985Z,94.79
2018-04-27T02:55:19.964Z,94.79
2018-04-27T02:56:19.940Z,94.32
2018-04-27T02:57:21.419Z,94.51
2018-04-27T02:58:19.893Z,94.51
2018-04-27T02:59:19.869Z,94.60
2018-04-27T03:00:19.845Z,94.32
2018-04-27T03:01:19.823Z,94.51
2018-04-27T03:02:19.798Z,94.22
2018-04-27T03:03:21.277Z,94.42
2018-04-27T03:04:19.753Z,94.22
2018-04-27T03:05:19.729Z,94.22
2018-04-27T03:06:19.705Z,94.03
2018-04-27T03:07:19.680Z,94.42
2018-04-27T03:08:19.657Z,93.84
2018-04-27T03:09:19.635Z,92.99
2018-04-27T03:10:19.609Z,93.84
2018-04-27T03:11:19.585Z,93.94
2018-04-27T03:12:19.570Z,94.60
2018-04-27T03:13:19.540Z,93.08
2018-04-27T03:14:19.515Z,92.61
2018-04-27T03:15:19.491Z,93.18
2018-04-27T03:16:19.468Z,93.18
2018-04-27T03:17:19.445Z,92.61
2018-04-27T03:18:19.420Z,92.41
2018-04-27T03:19:19.397Z,92.51
2018-04-27T03:20:19.372Z,92.51
2018-04-27T03:21:19.348Z,91.94
2018-04-27T03:22:19.324Z,91.66
2018-04-27T03:23:19.302Z,92.99
2018-04-27T03:24:19.277Z,92.22
2018-04-27T03:25:19.254Z,92.51
2018-04-27T03:26:19.230Z,92.13
2018-04-27T03:27:19.206Z,92.61
2018-04-27T03:28:19.183Z,91.66
2018-04-27T03:29:19.159Z,92.13
2018-04-27T03:30:19.889Z,92.32
2018-04-27T03:31:19.117Z,91.75
2018-04-27T03:32:19.090Z,92.08
2018-04-27T03:33:19.064Z,92.22
2018-04-27T03:34:19.050Z,92.70
2018-04-27T03:35:19.016Z,92.89
2018-04-27T03:36:18.992Z,93.84
2018-04-27T03:37:18.968Z,93.46
2018-04-27T03:38:18.944Z,92.99
2018-04-27T03:39:18.920Z,93.89
2018-04-27T03:40:18.896Z,93.65
2018-04-27T03:41:18.872Z,93.84
2018-04-27T03:42:18.846Z,93.37
2018-04-27T03:43:18.822Z,93.99
2018-04-27T03:44:18.799Z,93.51
2018-04-27T03:45:18.789Z,92.37
2018-04-27T03:46:18.750Z,94.32
2018-04-27T03:47:18.726Z,92.56
2018-04-27T03:48:18.702Z,94.56
2018-04-27T03:49:18.679Z,93.89
2018-04-27T03:50:18.653Z,94.74
2018-04-27T03:51:18.629Z,93.70
2018-04-27T03:52:18.606Z,93.60
2018-04-27T03:53:18.583Z,93.04
2018-04-27T03:54:18.558Z,92.94
2018-04-27T03:55:18.534Z,92.94
2018-04-27T03:56:18.510Z,93.41
2018-04-27T03:57:18.486Z,93.99
2018-04-27T03:58:18.460Z,93.46
2018-04-27T03:59:18.438Z,93.23
2018-04-27T04:00:18.412Z,93.99
2018-04-27T04:01:19.141Z,93.46
2018-04-27T04:02:18.365Z,93.60
2018-04-27T04:03:18.345Z,93.04
2018-04-27T04:04:18.317Z,93.04
2018-04-27T04:05:18.297Z,92.85
2018-04-27T04:06:18.270Z,92.46
2018-04-27T04:07:18.245Z,92.08
2018-04-27T04:08:18.219Z,92.85
2018-04-27T04:09:18.199Z,92.18
2018-04-27T04:10:18.171Z,92.66
2018-04-27T04:11:18.146Z,92.27
2018-04-27T04:12:18.122Z,92.18
2018-04-27T04:13:18.099Z,91.61
2018-04-27T04:14:18.074Z,91.33
2018-04-27T04:15:18.050Z,91.33
2018-04-27T04:16:18.028Z,91.04
2018-04-27T04:17:18.003Z,89.80
2018-04-27T04:18:17.977Z,89.04
2018-04-27T04:19:17.954Z,89.61
2018-04-27T04:20:17.929Z,90.00
2018-04-27T04:21:17.915Z,89.23
2018-04-27T04:22:19.381Z,88.76
2018-04-27T04:23:17.858Z,88.28
2018-04-27T04:24:17.831Z,87.90
2018-04-27T04:25:17.822Z,87.62
2018-04-27T04:26:17.783Z,87.24
2018-04-27T04:27:17.759Z,87.24
2018-04-27T04:28:19.235Z,87.43
2018-04-27T04:29:17.712Z,87.71
2018-04-27T04:30:17.688Z,87.43
2018-04-27T04:31:17.661Z,86.76
2018-04-27T04:32:17.684Z,87.24
2018-04-27T04:33:17.612Z,87.05
2018-04-27T04:34:17.589Z,86.76
2018-04-27T04:35:17.565Z,87.05
2018-04-27T04:36:17.542Z,86.76
2018-04-27T04:37:17.518Z,87.71
2018-04-27T04:38:17.496Z,86.57
2018-04-27T04:39:17.466Z,86.86
2018-04-27T04:40:17.443Z,86.19
2018-04-27T04:41:17.419Z,86.67
2018-04-27T04:42:17.395Z,87.05
2018-04-27T04:43:17.372Z,85.91
2018-04-27T04:44:17.347Z,86.76
2018-04-27T04:45:17.322Z,87.81
2018-04-27T04:46:17.298Z,87.24
2018-04-27T04:47:17.275Z,87.34
2018-04-27T04:48:17.251Z,87.43
2018-04-27T04:49:17.225Z,88.09
2018-04-27T04:50:17.201Z,87.71
2018-04-27T04:51:17.176Z,86.86
2018-04-27T04:52:17.233Z,86.86
2018-04-27T04:53:17.128Z,86.29
2018-04-27T04:54:17.104Z,86.19
2018-04-27T04:55:17.079Z,86.19
2018-04-27T04:56:17.057Z,85.81
2018-04-27T04:57:17.033Z,85.81
2018-04-27T04:58:17.007Z,87.43
2018-04-27T04:59:16.984Z,87.05
2018-04-27T05:00:16.958Z,86.38
2018-04-27T05:01:16.935Z,87.52
2018-04-27T05:02:16.911Z,86.95
2018-04-27T05:03:16.886Z,85.91
2018-04-27T05:04:16.861Z,87.43
2018-04-27T05:05:16.838Z,87.43
2018-04-27T05:06:16.813Z,87.90
2018-04-27T05:07:16.791Z,87.62
2018-04-27T05:08:16.850Z,88.04
2018-04-27T05:09:16.741Z,88.09
2018-04-27T05:10:16.716Z,88.09
2018-04-27T05:11:16.692Z,88.28
2018-04-27T05:12:16.668Z,89.66
2018-04-27T05:13:16.645Z,88.90
2018-04-27T05:14:16.619Z,88.61
2018-04-27T05:15:16.595Z,89.94
2018-04-27T05:16:16.571Z,88.80
2018-04-27T05:17:16.549Z,89.37
2018-04-27T05:18:16.523Z,90.04
2018-04-27T05:19:16.502Z,90.14
2018-04-27T05:20:16.475Z,90.23
2018-04-27T05:21:16.452Z,90.14
2018-04-27T05:22:16.426Z,90.23
2018-04-27T05:23:16.405Z,89.75
2018-04-27T05:24:16.467Z,91.66
2018-04-27T05:25:16.354Z,90.33
2018-04-27T05:26:16.330Z,91.28
2018-04-27T05:27:16.305Z,90.89
2018-04-27T05:28:16.286Z,90.04
2018-04-27T05:29:16.259Z,90.33
2018-04-27T05:30:16.232Z,91.28
2018-04-27T05:31:16.208Z,90.80
2018-04-27T05:32:16.184Z,90.04
2018-04-27T05:33:19.166Z,91.56
2018-04-27T05:34:16.136Z,90.04
2018-04-27T05:35:16.112Z,92.41
2018-04-27T05:36:16.088Z,91.18
2018-04-27T05:37:16.065Z,90.28
2018-04-27T05:38:16.044Z,91.22
2018-04-27T05:39:18.271Z,92.41
2018-04-27T05:40:15.992Z,91.80
2018-04-27T05:41:15.987Z,92.56
2018-04-27T05:42:15.951Z,92.27
2018-04-27T05:43:15.921Z,92.84
2018-04-27T05:44:15.896Z,92.75
2018-04-27T05:45:15.877Z,90.37
2018-04-27T05:46:15.849Z,91.99
2018-04-27T05:47:15.826Z,91.89
2018-04-27T05:48:15.827Z,91.80
2018-04-27T05:49:15.778Z,92.27
2018-04-27T05:50:15.754Z,91.61
2018-04-27T05:51:15.730Z,92.75
2018-04-27T05:52:15.705Z,92.75
2018-04-27T05:53:15.683Z,93.13
2018-04-27T05:54:15.659Z,92.75
2018-04-27T05:55:15.634Z,92.56
2018-04-27T05:56:16.363Z,92.46
2018-04-27T05:57:15.589Z,91.75
2018-04-27T05:58:15.563Z,93.89
2018-04-27T05:59:15.540Z,92.36
2018-04-27T06:00:15.518Z,91.03
2018-04-27T06:01:15.493Z,91.89
2018-04-27T06:02:15.470Z,92.60
2018-04-27T06:03:15.445Z,92.79
2018-04-27T06:04:15.422Z,93.27
2018-04-27T06:05:15.398Z,92.36
2018-04-27T06:06:15.377Z,92.03
2018-04-27T06:07:16.104Z,92.32
2018-04-27T06:08:15.329Z,89.94
2018-04-27T06:09:15.308Z,92.03
2018-04-27T06:10:15.285Z,94.13
2018-04-27T06:11:15.259Z,93.94
2018-04-27T06:12:15.234Z,90.99
2018-04-27T06:13:15.211Z,90.99
2018-04-27T06:14:15.187Z,92.99
2018-04-27T06:15:15.165Z,91.37
2018-04-27T06:16:15.146Z,93.18
2018-04-27T06:17:15.121Z,91.84
2018-04-27T06:18:15.094Z,90.03
2018-04-27T06:19:15.071Z,92.60
2018-04-27T06:20:15.055Z,91.37
2018-04-27T06:21:15.025Z,92.03
2018-04-27T06:22:15.001Z,88.99
2018-04-27T06:23:14.979Z,90.80
2018-04-27T06:24:14.956Z,90.42
2018-04-27T06:25:14.932Z,92.70
2018-04-27T06:26:14.908Z,90.22
2018-04-27T06:27:14.886Z,89.65
2018-04-27T06:28:14.870Z,88.84
2018-04-27T06:29:14.839Z,90.27
2018-04-27T06:30:14.816Z,88.93
2018-04-27T06:31:14.792Z,89.61
2018-04-27T06:32:14.771Z,88.46
2018-04-27T06:33:14.746Z,89.13
2018-04-27T06:34:14.726Z,89.41
2018-04-27T06:35:14.700Z,89.13
2018-04-27T06:36:14.709Z,88.75
2018-04-27T06:37:14.655Z,88.08
2018-04-27T06:38:14.631Z,88.93
2018-04-27T06:39:14.608Z,86.75
2018-04-27T06:40:14.590Z,89.32
2018-04-27T06:41:14.563Z,90.17
2018-04-27T06:42:14.538Z,89.94
2018-04-27T06:43:14.516Z,88.41
2018-04-27T06:44:14.493Z,91.79
2018-04-27T06:45:14.469Z,89.79
2018-04-27T06:46:14.448Z,90.03
2018-04-27T06:47:14.423Z,88.93
2018-04-27T06:48:14.401Z,89.03
2018-04-27T06:49:14.379Z,88.98
2018-04-27T06:50:14.354Z,89.84
2018-04-27T06:51:14.334Z,91.94
2018-04-27T06:52:14.313Z,89.94
2018-04-27T06:53:14.291Z,89.84
2018-04-27T06:54:14.268Z,88.12
2018-04-27T06:55:14.242Z,87.84
2018-04-27T06:56:14.222Z,90.12
2018-04-27T06:57:14.199Z,88.03
2018-04-27T06:58:14.173Z,88.31
2018-04-27T06:59:14.239Z,85.36
2018-04-27T07:00:14.127Z,88.51
2018-04-27T07:01:14.105Z,85.64
2018-04-27T07:02:14.082Z,84.41
2018-04-27T07:03:14.061Z,84.60
2018-04-27T07:04:14.038Z,83.78
2018-04-27T07:05:14.154Z,88.26
2018-04-27T07:06:14.741Z,88.26
2018-04-27T07:07:13.968Z,84.98
2018-04-27T07:08:13.947Z,88.07
2018-04-27T07:09:13.924Z,89.69
2018-04-27T07:10:13.902Z,88.36
2018-04-27T07:11:13.878Z,88.93
2018-04-27T07:12:13.857Z,89.89
2018-04-27T07:13:13.833Z,90.17
2018-04-27T07:14:13.811Z,88.64
2018-04-27T07:15:13.789Z,89.69
2018-04-27T07:16:13.765Z,88.07
2018-04-27T07:17:13.752Z,88.64
2018-04-27T07:18:13.721Z,87.60
2018-04-27T07:19:13.699Z,87.21
2018-04-27T07:20:13.675Z,88.93
2018-04-27T07:21:13.658Z,87.88
2018-04-27T07:22:13.631Z,88.40
2018-04-27T07:23:13.610Z,89.74
2018-04-27T07:24:13.587Z,88.40
2018-04-27T07:25:13.564Z,87.64
2018-04-27T07:26:13.541Z,88.59
2018-04-27T07:27:13.519Z,91.64
2018-04-27T07:28:13.496Z,90.88
2018-04-27T07:29:13.473Z,90.79
2018-04-27T07:30:13.452Z,91.83
2018-04-27T07:31:13.428Z,90.31
2018-04-27T07:32:13.408Z,89.45
2018-04-27T07:33:13.385Z,91.27
2018-04-27T07:34:13.377Z,91.83
2018-04-27T07:35:13.340Z,93.36
2018-04-27T07:36:13.320Z,91.93
2018-04-27T07:37:13.295Z,92.22
2018-04-27T07:38:15.526Z,90.64
2018-04-27T07:39:13.255Z,93.60
2018-04-27T07:40:13.232Z,92.93
2018-04-27T07:41:13.206Z,94.17
2018-04-27T07:42:13.185Z,93.02
2018-04-27T07:43:13.161Z,94.51
2018-04-27T07:44:13.141Z,92.79
2018-04-27T07:45:13.200Z,92.60
2018-04-27T07:46:13.095Z,94.70
2018-04-27T07:47:13.074Z,91.64
2018-04-27T07:48:13.052Z,94.22
2018-04-27T07:49:13.030Z,91.55
2018-04-27T07:50:13.008Z,92.32
2018-04-27T07:51:12.986Z,90.59
2018-04-27T07:52:12.963Z,93.65
2018-04-27T07:53:12.941Z,91.60
2018-04-27T07:54:12.917Z,94.07
2018-04-27T07:55:12.896Z,95.70
2018-04-27T07:56:12.876Z,94.84
2018-04-27T07:57:12.852Z,94.36
2018-04-27T07:58:12.830Z,93.79
2018-04-27T07:59:12.809Z,97.13
2018-04-27T08:00:13.541Z,94.17
2018-04-27T08:01:12.766Z,92.07
2018-04-27T08:02:12.761Z,95.84
2018-04-27T08:03:12.722Z,94.56
2018-04-27T08:04:12.699Z,94.60
2018-04-27T08:05:12.678Z,92.88
2018-04-27T08:06:12.655Z,96.42
2018-04-27T08:07:12.717Z,94.03
2018-04-27T08:08:12.612Z,95.36
2018-04-27T08:09:12.591Z,97.18
2018-04-27T08:10:12.566Z,97.66
2018-04-27T08:11:12.546Z,94.31
2018-04-27T08:12:12.524Z,94.41
2018-04-27T08:13:12.503Z,94.79
2018-04-27T08:14:12.481Z,94.70
2018-04-27T08:15:12.458Z,94.41
2018-04-27T08:16:12.437Z,95.17
2018-04-27T08:17:12.415Z,96.13
2018-04-27T08:18:12.396Z,95.65
2018-04-27T08:19:12.376Z,93.74
2018-04-27T08:20:12.351Z,95.36
2018-04-27T08:21:12.328Z,96.80
2018-04-27T08:22:12.307Z,95.36
2018-04-27T08:23:12.321Z,94.31
2018-04-27T08:24:12.263Z,97.32
2018-04-27T08:25:12.242Z,99.04
2018-04-27T08:26:12.220Z,95.41
2018-04-27T08:27:12.198Z,98.85
2018-04-27T08:28:12.176Z,97.23
2018-04-27T08:29:12.156Z,96.84
2018-04-27T08:30:12.187Z,94.36
2018-04-27T08:31:12.111Z,97.52
2018-04-27T08:32:12.091Z,97.89
2018-04-27T08:33:12.069Z,98.42
2018-04-27T08:34:12.047Z,96.89
2018-04-27T08:35:12.028Z,97.85
2018-04-27T08:36:12.016Z,96.03
2018-04-27T08:37:11.983Z,99.99
2018-04-27T08:38:11.960Z,99.76
2018-04-27T08:39:11.939Z,98.37
2018-04-27T08:40:11.918Z,98.18
2018-04-27T08:41:11.897Z,97.56
2018-04-27T08:42:11.875Z,99.09
2018-04-27T08:43:11.858Z,99.19
2018-04-27T08:44:11.834Z,96.03
2018-04-27T08:45:11.813Z,97.56
2018-04-27T08:46:11.790Z,98.52
2018-04-27T08:47:11.768Z,98.95
2018-04-27T08:48:11.749Z,98.95
2018-04-27T08:49:11.726Z,98.75
2018-04-27T08:50:11.706Z,99.04
2018-04-27T08:51:11.685Z,98.95
2018-04-27T08:52:11.663Z,99.81
2018-04-27T08:53:11.643Z,96.94
2018-04-27T08:54:11.622Z,97.99
2018-04-27T08:55:11.601Z,98.28
2018-04-27T08:56:11.582Z,99.99
2018-04-27T08:57:11.560Z,99.99
2018-04-27T08:58:11.539Z,99.10
2018-04-27T08:59:11.516Z,99.99
2018-04-27T09:00:11.497Z,99.99
2018-04-27T09:01:11.475Z,99.99
2018-04-27T09:02:11.454Z,99.99
2018-04-27T09:03:11.432Z,99.99
2018-04-27T09:04:11.414Z,99.71
2018-04-27T09:05:11.393Z,99.99
2018-04-27T09:06:11.371Z,99.90
2018-04-27T09:07:11.351Z,99.99
2018-04-27T09:08:11.331Z,99.71
2018-04-27T09:09:11.310Z,99.90
2018-04-27T09:10:11.288Z,99.43
2018-04-27T09:11:11.268Z,99.52
2018-04-27T09:12:11.247Z,99.67
2018-04-27T09:13:11.228Z,99.99
2018-04-27T09:14:11.205Z,99.99
2018-04-27T09:15:11.186Z,99.96
2018-04-27T09:16:11.174Z,99.99
2018-04-27T09:17:11.144Z,99.99
2018-04-27T09:18:11.166Z,99.99
2018-04-27T09:19:11.103Z,99.99
2018-04-27T09:20:11.083Z,99.99
2018-04-27T09:21:11.062Z,99.99
2018-04-27T09:22:11.042Z,99.67
2018-04-27T09:23:11.021Z,99.99
2018-04-27T09:24:11.001Z,99.96
2018-04-27T09:25:10.981Z,99.99
2018-04-27T09:26:10.959Z,99.99
2018-04-27T09:27:10.940Z,99.67
2018-04-27T09:28:14.671Z,99.29
2018-04-27T09:29:10.901Z,99.99
2018-04-27T09:30:10.876Z,99.72
2018-04-27T09:31:10.858Z,99.91
2018-04-27T09:32:10.836Z,99.99
2018-04-27T09:33:10.815Z,99.81
2018-04-27T09:34:12.297Z,99.81
2018-04-27T09:35:10.775Z,99.62
2018-04-27T09:36:10.754Z,99.43
2018-04-27T09:37:10.735Z,98.57
2018-04-27T09:38:10.713Z,97.71
2018-04-27T09:39:10.694Z,98.19
2018-04-27T09:40:11.425Z,99.15
2018-04-27T09:41:10.729Z,99.10
2018-04-27T09:42:10.633Z,99.38
2018-04-27T09:43:10.612Z,99.19
2018-04-27T09:44:10.593Z,97.85
2018-04-27T09:45:10.574Z,96.75
2018-04-27T09:46:10.551Z,98.38
2018-04-27T09:47:10.533Z,99.33
2018-04-27T09:48:10.513Z,99.81
2018-04-27T09:49:10.491Z,98.76
2018-04-27T09:50:10.470Z,98.66
2018-04-27T09:51:10.450Z,98.76
2018-04-27T09:52:10.430Z,99.43
2018-04-27T09:53:10.410Z,99.77
2018-04-27T09:54:10.392Z,99.87
2018-04-27T09:55:10.370Z,99.34
2018-04-27T09:56:10.349Z,98.96
2018-04-27T09:57:10.329Z,98.47
2018-04-27T09:58:10.310Z,96.94
2018-04-27T09:59:10.288Z,98.38
2018-04-27T10:00:10.273Z,98.28
2018-04-27T10:01:10.249Z,98.19
2018-04-27T10:02:10.229Z,98.19
2018-04-27T10:03:10.209Z,95.03
2018-04-27T10:04:10.193Z,95.51
2018-04-27T10:05:10.171Z,91.39
2018-04-27T10:06:10.147Z,91.96
2018-04-27T10:07:10.127Z,92.73
2018-04-27T10:08:10.108Z,92.54
2018-04-27T10:09:10.089Z,86.69
2018-04-27T10:10:10.068Z,87.74
2018-04-27T10:11:10.050Z,92.54
2018-04-27T10:12:10.030Z,91.19
2018-04-27T10:13:10.011Z,91.96
2018-04-27T10:14:09.990Z,95.12
2018-04-27T10:15:09.969Z,92.73
2018-04-27T10:16:09.951Z,93.35
2018-04-27T10:17:09.932Z,96.84
2018-04-27T10:18:09.910Z,94.35
2018-04-27T10:19:09.891Z,95.98
2018-04-27T10:20:09.872Z,93.88
2018-04-27T10:21:09.854Z,94.84
2018-04-27T10:22:09.836Z,91.86
2018-04-27T10:23:10.566Z,92.01
2018-04-27T10:24:09.795Z,88.94
2018-04-27T10:25:09.775Z,91.72
2018-04-27T10:26:09.754Z,91.91
2018-04-27T10:27:09.734Z,88.17
2018-04-27T10:28:09.716Z,89.32
2018-04-27T10:29:09.696Z,87.37
2018-04-27T10:30:09.676Z,89.66
2018-04-27T10:31:09.656Z,90.23
2018-04-27T10:32:09.640Z,94.07
2018-04-27T10:33:09.616Z,93.98
2018-04-27T10:34:10.346Z,87.41
2018-04-27T10:35:09.576Z,86.83
2018-04-27T10:36:09.558Z,87.41
2018-04-27T10:37:09.537Z,84.44
2018-04-27T10:38:09.518Z,85.58
2018-04-27T10:39:09.499Z,83.29
2018-04-27T10:40:09.484Z,86.58
2018-04-27T10:41:09.459Z,85.15
2018-04-27T10:42:09.442Z,84.00
2018-04-27T10:43:09.441Z,76.04
2018-04-27T10:44:09.406Z,79.01
2018-04-27T10:45:10.883Z,77.95
2018-04-27T10:46:09.361Z,84.05
2018-04-27T10:47:09.343Z,80.83
2018-04-27T10:48:09.327Z,86.40
2018-04-27T10:49:09.305Z,83.23
2018-04-27T10:50:09.319Z,82.75
2018-04-27T10:51:09.266Z,83.04
2018-04-27T10:52:09.246Z,76.75
2018-04-27T10:53:09.228Z,74.64
2018-04-27T10:54:09.218Z,71.86
2018-04-27T10:55:09.192Z,72.14
2018-04-27T10:56:09.249Z,70.90
2018-04-27T10:57:09.151Z,69.46
2018-04-27T10:58:09.132Z,67.67
2018-04-27T10:59:09.112Z,63.79
2018-04-27T11:00:09.094Z,66.80
2018-04-27T11:01:09.075Z,65.75
2018-04-27T11:02:09.806Z,67.86
2018-04-27T11:03:09.037Z,68.57
2018-04-27T11:04:09.018Z,67.80
2018-04-27T11:05:09.000Z,63.76
2018-04-27T11:06:08.981Z,63.64
2018-04-27T11:07:08.963Z,64.40
2018-04-27T11:08:08.946Z,62.68
2018-04-27T11:09:08.927Z,61.72
2018-04-27T11:10:08.908Z,62.04
2018-04-27T11:11:08.889Z,60.57
2018-04-27T11:12:08.871Z,62.87
2018-04-27T11:13:09.604Z,61.91
2018-04-27T11:14:08.833Z,65.59
2018-04-27T11:15:08.814Z,63.67
2018-04-27T11:16:08.832Z,64.28
2018-04-27T11:17:08.777Z,60.82
2018-04-27T11:18:08.762Z,58.89
2018-04-27T11:19:08.740Z,59.99
2018-04-27T11:20:08.740Z,57.20
2018-04-27T11:21:08.703Z,59.41
2018-04-27T11:22:08.683Z,58.13
2018-04-27T11:23:08.665Z,59.09
2018-04-27T11:24:11.650Z,59.47
2018-04-27T11:25:08.630Z,63.12
2018-04-27T11:26:08.660Z,55.15
2018-04-27T11:27:08.593Z,57.17
2018-04-27T11:28:08.575Z,62.07
2018-04-27T11:29:08.557Z,58.22
2018-04-27T11:30:08.538Z,58.67
2018-04-27T11:31:08.519Z,58.00
2018-04-27T11:32:08.502Z,56.98
2018-04-27T11:33:08.485Z,58.42
2018-04-27T11:34:08.466Z,58.99
2018-04-27T11:35:08.527Z,60.05
2018-04-27T11:36:08.433Z,59.47
2018-04-27T11:37:08.411Z,59.28
2018-04-27T11:38:08.394Z,61.20
2018-04-27T11:39:08.375Z,61.01
2018-04-27T11:40:08.357Z,60.75
2018-04-27T11:41:08.338Z,59.41
2018-04-27T11:42:08.320Z,59.82
2018-04-27T11:43:08.302Z,59.34
2018-04-27T11:44:08.286Z,58.35
2018-04-27T11:45:08.268Z,58.45
2018-04-27T11:46:08.249Z,58.70
2018-04-27T11:47:08.232Z,60.53
2018-04-27T11:48:08.213Z,58.13
2018-04-27T11:49:08.195Z,58.03
2018-04-27T11:50:08.176Z,59.28
2018-04-27T11:51:08.158Z,62.07
2018-04-27T11:52:08.141Z,62.68
2018-04-27T11:53:08.123Z,60.94
2018-04-27T11:54:08.104Z,59.22
2018-04-27T11:55:08.090Z,59.41
2018-04-27T11:56:08.080Z,58.15
2018-04-27T11:57:08.051Z,56.33
2018-04-27T11:58:08.034Z,57.13
2018-04-27T11:59:08.015Z,58.57
2018-04-27T12:00:07.997Z,58.37
2018-04-27T12:01:07.981Z,57.60
2018-04-27T12:02:07.961Z,60.30
2018-04-27T12:03:07.944Z,58.70
2018-04-27T12:04:07.927Z,56.55
2018-04-27T12:05:07.910Z,55.88
2018-04-27T12:06:07.891Z,57.80
2018-04-27T12:07:07.873Z,57.06
2018-04-27T12:08:07.856Z,57.15
2018-04-27T12:09:07.839Z,57.54
2018-04-27T12:10:07.820Z,55.43
2018-04-27T12:11:07.803Z,55.23
2018-04-27T12:12:07.786Z,55.43
2018-04-27T12:13:07.770Z,56.55
2018-04-27T12:14:07.750Z,57.97
2018-04-27T12:15:07.732Z,59.34
2018-04-27T12:16:07.717Z,57.22
2018-04-27T12:17:07.698Z,57.42
2018-04-27T12:18:07.680Z,56.93
2018-04-27T12:19:07.663Z,57.73
2018-04-27T12:20:07.647Z,57.92
2018-04-27T12:21:07.634Z,55.93
2018-04-27T12:22:07.610Z,54.00
2018-04-27T12:23:07.593Z,51.70
2018-04-27T12:24:07.576Z,52.66
2018-04-27T12:25:07.560Z,54.00
2018-04-27T12:26:07.541Z,52.97
2018-04-27T12:27:07.524Z,52.27
2018-04-27T12:28:07.513Z,52.66
2018-04-27T12:29:07.489Z,50.54
2018-04-27T12:30:07.471Z,50.15
2018-04-27T12:31:07.526Z,50.83
2018-04-27T12:32:07.438Z,50.45
2018-04-27T12:33:07.422Z,49.29
2018-04-27T12:34:07.403Z,50.93
2018-04-27T12:35:07.387Z,50.45
2018-04-27T12:36:07.369Z,49.27
2018-04-27T12:37:07.352Z,50.42
2018-04-27T12:38:07.335Z,49.74
2018-04-27T12:39:07.318Z,49.36
2018-04-27T12:40:07.300Z,49.07
2018-04-27T12:41:07.284Z,48.88
2018-04-27T12:42:07.266Z,43.32
2018-04-27T12:43:07.249Z,41.59
2018-04-27T12:44:07.233Z,42.46
2018-04-27T12:45:07.300Z,43.41
2018-04-27T12:46:07.200Z,45.05
2018-04-27T12:47:07.181Z,45.94
2018-04-27T12:48:07.165Z,45.97
2018-04-27T12:49:07.147Z,45.77
2018-04-27T12:50:07.129Z,42.30
2018-04-27T12:51:07.113Z,42.52
2018-04-27T12:52:07.138Z,41.84